Flight Track Log - Related Links

Times and Time Zones

All times are in EDT time to prevent confusion due to time zone crossing. See the DAL776 flight status page for this flight to view local times or setup timezone preferences in your user account.

Time Position Orientation Groundspeed Altitude Reporting Facility
EDT Latitude Longitude Course Direction KTS MPH feet Rate Location/Type
Thu 09:26:38 PM 33.6289 -84.3706 194° South 462 532 3,000  Level Atlanta Center
Thu 09:27:38 PM 33.6000 -84.2883 113° Southeast 378 435 6,100 3,300 Climbing Atlanta Center
Thu 09:28:38 PM 33.5269 -84.2781 173° South 291 335 9,600 3,000 Climbing Atlanta Center
Thu 09:29:00 PM 33.2923 -84.3128 194° South  Level FlightAware Approximate
Thu 09:29:38 PM 33.4433 -84.2903 187° South 296 341 12,100  Level Atlanta Center
Thu 09:30:00 PM 33.1838 -84.3444 194° South  Level FlightAware Approximate
Thu 09:30:38 PM 33.3431 -84.3197 194° South 342 394 13,700  Level Atlanta Center
Thu 09:31:00 PM 33.0753 -84.3760 194° South  Level FlightAware Approximate
Thu 09:31:38 PM 33.2386 -84.3492 193° South 377 434 16,000  Level Atlanta Center
Thu 09:32:38 PM 33.1322 -84.3786 193° South 395 455 18,100 2,200 Climbing Atlanta Center
Thu 09:33:38 PM 33.0192 -84.4106 193° South 408 470 20,400 2,100 Climbing Atlanta Center
Thu 09:34:38 PM 32.9003 -84.4272 187° South 428 493 22,300 1,850 Climbing Atlanta Center
Thu 09:35:38 PM 32.7792 -84.4217 178° South 428 493 24,100 1,700 Climbing Atlanta Center
Thu 09:36:38 PM 32.6539 -84.4189 179° South 439 505 25,700 1,538 Climbing Atlanta Center
Thu 09:38:18 PM 32.4456 -84.4139 179° South 457 526 28,200 1,650 Climbing Jacksonville Center
Thu 09:39:18 PM 32.3142 -84.4092 178° South 472 543 30,100 2,000 Climbing Jacksonville Center
Thu 09:40:18 PM 32.1825 -84.4072 179° South 472 543 32,200 1,950 Climbing Jacksonville Center
Thu 09:41:18 PM 32.0553 -84.4050 179° South 472 543 34,000 1,750 Climbing Jacksonville Center
Thu 09:42:18 PM 31.9300 -84.4006 178° South 472 543 35,700 1,500 Climbing Jacksonville Center
Thu 09:43:18 PM 31.8008 -84.3861 175° South 467 537 37,000 650 Climbing Jacksonville Center
Thu 09:44:18 PM 31.6822 -84.3378 161° South 454 522 37,000  Level Jacksonville Center
Thu 09:45:18 PM 31.5617 -84.2944 163° South 454 522 37,000  Level Jacksonville Center
Thu 09:46:18 PM 31.4267 -84.2389 161° South 459 528 37,000  Level Jacksonville Center
Thu 09:47:18 PM 31.3058 -84.1933 162° South 459 528 37,000  Level Jacksonville Center
Thu 09:48:18 PM 31.1853 -84.1481 162° South 459 528 37,000  Level Jacksonville Center
Thu 09:49:18 PM 31.0625 -84.1003 162° South 459 528 37,000  Level Jacksonville Center
Thu 09:50:18 PM 30.9419 -84.0553 162° South 459 528 37,000  Level Jacksonville Center
Thu 09:51:18 PM 30.8233 -84.0078 161° South 459 528 37,000  Level Jacksonville Center
Thu 09:52:18 PM 30.7025 -83.9653 163° South 459 528 37,000  Level Jacksonville Center
Thu 09:53:18 PM 30.5861 -83.9206 162° South 459 528 37,000 -50 Level Jacksonville Center
Thu 09:54:18 PM 30.4839 -83.8833 163° South 437 503 36,900  Descending Jacksonville Center
Thu 09:55:18 PM 30.3758 -83.8125 151° Southeast 437 503 37,000  Climbing Jacksonville Center
Thu 09:56:18 PM 30.2700 -83.7392 149° Southeast 443 510 36,900 -50 Descending Jacksonville Center
Thu 09:57:18 PM 30.1661 -83.6614 147° Southeast 449 517 36,900  Level Jacksonville Center
Thu 09:58:18 PM 30.0578 -83.5933 151° Southeast 449 517 36,900  Level Jacksonville Center
Thu 09:59:18 PM 29.9539 -83.5158 147° Southeast 449 517 36,900 -400 Level Jacksonville Center
Thu 10:00:18 PM 29.8478 -83.4386 148° Southeast 449 517 36,100 -1,000 Descending Jacksonville Center
Thu 10:01:18 PM 29.7269 -83.4044 166° South 443 510 34,900 -550 Descending Jacksonville Center
Thu 10:02:18 PM 29.6017 -83.3797 170° South 448 516 35,000 50 Climbing Jacksonville Center
Thu 10:03:18 PM 29.4764 -83.3625 173° South 455 524 35,000 -50 Level Jacksonville Center
Thu 10:04:18 PM 29.3533 -83.3406 171° South 455 524 34,900 -500 Descending Jacksonville Center
Thu 10:05:18 PM 29.2325 -83.3161 170° South 450 518 34,000 -1,900 Descending Jacksonville Center
Thu 10:06:18 PM 29.1114 -83.2847 167° South 445 512 31,100 -2,600 Descending Jacksonville Center
Thu 10:07:18 PM 28.9883 -83.2533 167° South 450 518 28,800 -1,900 Descending Jacksonville Center
Thu 10:08:18 PM 28.8653 -83.2244 168° South 450 518 27,300 -1,550 Descending Jacksonville Center
Thu 10:09:18 PM 28.7486 -83.1981 169° South 445 512 25,700 -2,516 Descending Jacksonville Center
Thu 10:10:53 PM 28.5667 -83.1500 167° South 402 463 20,800 -2,980 Descending Tampa TRACON
Thu 10:11:47 PM 28.4667 -83.1333 172° South 389 448 18,300 -2,211 Descending Tampa TRACON
Thu 10:12:47 PM 28.3667 -83.1000 164° South 374 430 16,600 -1,748 Descending Tampa TRACON
Thu 10:13:54 PM 28.2500 -83.0833 173° South 366 421 14,600 -1,736 Descending Tampa TRACON
Thu 10:14:48 PM 28.1833 -83.0500 156° South 348 400 13,100 -1,737 Descending Tampa TRACON
Thu 10:15:48 PM 28.0833 -83.0000 156° South 341 392 11,300 -1,226 Descending Tampa TRACON
Thu 10:17:00 PM 27.9476 -83.0068 173° South  Level FlightAware Approximate
Thu 10:17:54 PM 27.9167 -82.9167 173° South 291 335 9,300  Level Tampa TRACON
Thu 10:18:48 PM 27.8667 -82.8833 149° Southeast 280 322 8,200 -1,263 Descending Tampa TRACON
Thu 10:19:48 PM 27.8000 -82.8500 156° South 278 320 6,900 -1,238 Descending Tampa TRACON
Thu 10:20:54 PM 27.7167 -82.8167 160° South 270 311 5,600 -1,211 Descending Tampa TRACON
Thu 10:21:42 PM 27.6667 -82.7833 149° Southeast 264 304 4,600 -1,222 Descending Tampa TRACON
Thu 10:22:42 PM 27.6000 -82.7500 156° South 262 302 3,400 -1,000 Descending Tampa TRACON
Thu 10:23:42 PM 27.5333 -82.7167 156° South 244 281 2,600 -500 Descending Tampa TRACON
Thu 10:24:42 PM 27.5000 -82.6667 127° Southeast 193 222 2,400 -500 Descending Tampa TRACON
Thu 10:25:42 PM 27.4667 -82.6333 138° Southeast 175 201 1,600 -750 Descending Tampa TRACON
Thu 10:26:42 PM 27.4333 -82.6000 138° Southeast 136 157 900 -700 Descending Tampa TRACON

Login

Don't have an account? Register now (free) for customized features, flight alerts, and more!